Kirksville Regional Airport Kirksville US
ICAO: KIRK
IATA: IRK
Category: Medium
Scheduled Services: Yes

Elevation: 966 ft
TransAlt. 18000 ft.

Airport Communications:
ASOS:121.125
KANSAS CITY CNTR:132.6
COLUMBIA RDO:122.2
CTAF/UNICOM:122.8

KIRK Zoom In..

If you have problems with the map follow the link
https://www.worldairports.se/pages/airport.php?
ICAO=KIRK

Runways:

(A) RW 09 length 1370 ft width 100 ft
---- / hdg 88

(B) RW 18 length 6005 ft width 100 ft
---- / hdg 177

(C) RW 27 length 1370 ft width 100 ft
---- / hdg 268

(D) RW 36 length 6005 ft width 100 ft
ILS 111.50 / hdg 357

Location; KIRK
Day. 19 / Time. 00.55 Zulu
* Altimeter: 30.36
* Temperature: 11° c. 51.8°f.
* Wind from: 170° Speed 04 kn.
Dewpoint: 05° c.
Visibility: 10 Statute Miles.
Clouds: Clear (automated report).

KIRK 190055Z AUTO 17004KT 10SM CLR 11/05 A3036 RMK AO2 SLP290 T01060050


Wind From 170°
Speed 04 kn.

 
 
jpsmedia.com for Web Design worldairports.se 2018   terms of use